sensor_id;sensor_type;location;lat;lon;timestamp;P1;durP1;ratioP1;P2;durP2;ratioP2
53714;SDS011;39608;55.630;37.864;2022-12-10T14:06:35;31.15;;;14.15;;
53714;SDS011;39608;55.630;37.864;2022-12-10T14:11:43;35.17;;;15.82;;
53714;SDS011;39608;55.630;37.864;2022-12-10T14:16:51;33.90;;;16.63;;
53714;SDS011;39608;55.630;37.864;2022-12-10T14:21:54;37.47;;;16.48;;
53714;SDS011;39608;55.630;37.864;2022-12-10T14:26:58;32.13;;;15.43;;
53714;SDS011;39608;55.630;37.864;2022-12-10T14:32:02;33.58;;;14.85;;
53714;SDS011;39608;55.630;37.864;2022-12-10T14:37:06;31.83;;;15.13;;
53714;SDS011;39608;55.630;37.864;2022-12-10T14:42:13;35.35;;;16.08;;
53714;SDS011;39608;55.630;37.864;2022-12-10T14:47:18;32.85;;;15.45;;
53714;SDS011;39608;55.630;37.864;2022-12-10T14:52:23;30.90;;;16.00;;
53714;SDS011;39608;55.630;37.864;2022-12-10T14:57:26;29.55;;;15.15;;
53714;SDS011;39608;55.630;37.864;2022-12-10T15:02:32;31.00;;;15.98;;
53714;SDS011;39608;55.630;37.864;2022-12-10T15:07:39;28.50;;;15.02;;
53714;SDS011;39608;55.630;37.864;2022-12-10T15:12:42;26.05;;;14.77;;
53714;SDS011;39608;55.630;37.864;2022-12-10T15:17:53;26.02;;;15.13;;
53714;SDS011;39608;55.630;37.864;2022-12-10T15:23:12;25.02;;;14.60;;
53714;SDS011;39608;55.630;37.864;2022-12-10T15:28:23;26.20;;;14.07;;
53714;SDS011;39608;55.630;37.864;2022-12-10T15:33:30;29.23;;;14.60;;
53714;SDS011;39608;55.630;37.864;2022-12-10T15:38:36;27.13;;;15.18;;
53714;SDS011;39608;55.630;37.864;2022-12-10T15:43:39;20.25;;;13.30;;
53714;SDS011;39608;55.630;37.864;2022-12-10T15:48:54;22.10;;;14.07;;
53714;SDS011;39608;55.630;37.864;2022-12-10T15:53:57;19.50;;;12.68;;
53714;SDS011;39608;55.630;37.864;2022-12-10T15:58:59;23.00;;;14.00;;
53714;SDS011;39608;55.630;37.864;2022-12-10T16:04:01;19.73;;;12.73;;
53714;SDS011;39608;55.630;37.864;2022-12-10T16:09:04;20.00;;;12.93;;
53714;SDS011;39608;55.630;37.864;2022-12-10T16:14:12;19.13;;;12.82;;
53714;SDS011;39608;55.630;37.864;2022-12-10T16:19:15;17.20;;;11.60;;
53714;SDS011;39608;55.630;37.864;2022-12-10T16:24:18;15.25;;;11.70;;
53714;SDS011;39608;55.630;37.864;2022-12-10T16:29:20;18.35;;;11.30;;
53714;SDS011;39608;55.630;37.864;2022-12-10T16:34:23;18.60;;;12.20;;
53714;SDS011;39608;55.630;37.864;2022-12-10T16:39:28;21.13;;;11.30;;
53714;SDS011;39608;55.630;37.864;2022-12-10T16:44:32;15.27;;;10.85;;
53714;SDS011;39608;55.630;37.864;2022-12-10T16:49:36;17.20;;;11.55;;
53714;SDS011;39608;55.630;37.864;2022-12-10T16:54:40;13.43;;;10.50;;
53714;SDS011;39608;55.630;37.864;2022-12-10T16:59:42;14.60;;;10.35;;
53714;SDS011;39608;55.630;37.864;2022-12-10T17:04:44;12.18;;;9.25;;
53714;SDS011;39608;55.630;37.864;2022-12-10T17:09:47;13.32;;;10.32;;
53714;SDS011;39608;55.630;37.864;2022-12-10T17:14:49;12.85;;;9.68;;
53714;SDS011;39608;55.630;37.864;2022-12-10T17:19:51;13.30;;;9.57;;
53714;SDS011;39608;55.630;37.864;2022-12-10T17:24:54;11.98;;;8.70;;
53714;SDS011;39608;55.630;37.864;2022-12-10T17:29:56;11.02;;;8.80;;
53714;SDS011;39608;55.630;37.864;2022-12-10T17:34:58;11.80;;;8.98;;
53714;SDS011;39608;55.630;37.864;2022-12-10T17:40:02;10.15;;;8.55;;
53714;SDS011;39608;55.630;37.864;2022-12-10T17:45:12;10.10;;;7.65;;
53714;SDS011;39608;55.630;37.864;2022-12-10T17:50:19;10.88;;;8.02;;
53714;SDS011;39608;55.630;37.864;2022-12-10T17:55:27;10.35;;;6.55;;
53714;SDS011;39608;55.630;37.864;2022-12-10T18:00:30;8.43;;;6.80;;
53714;SDS011;39608;55.630;37.864;2022-12-10T18:05:34;9.43;;;7.00;;
53714;SDS011;39608;55.630;37.864;2022-12-10T18:10:37;7.00;;;6.03;;
53714;SDS011;39608;55.630;37.864;2022-12-10T18:15:40;8.85;;;6.05;;
53714;SDS011;39608;55.630;37.864;2022-12-10T18:20:42;6.45;;;5.50;;
53714;SDS011;39608;55.630;37.864;2022-12-10T18:25:46;6.28;;;5.05;;
53714;SDS011;39608;55.630;37.864;2022-12-10T18:30:50;6.32;;;4.78;;
53714;SDS011;39608;55.630;37.864;2022-12-10T18:35:54;6.40;;;4.53;;
53714;SDS011;39608;55.630;37.864;2022-12-10T18:40:58;6.63;;;4.78;;
53714;SDS011;39608;55.630;37.864;2022-12-10T18:46:00;4.65;;;4.00;;
53714;SDS011;39608;55.630;37.864;2022-12-10T18:51:02;5.18;;;3.92;;
53714;SDS011;39608;55.630;37.864;2022-12-10T18:56:05;6.57;;;3.47;;
53714;SDS011;39608;55.630;37.864;2022-12-10T19:01:08;3.80;;;3.13;;
53714;SDS011;39608;55.630;37.864;2022-12-10T19:06:12;3.20;;;2.80;;
53714;SDS011;39608;55.630;37.864;2022-12-10T19:11:17;2.97;;;2.55;;
53714;SDS011;39608;55.630;37.864;2022-12-10T19:16:20;2.80;;;2.60;;
53714;SDS011;39608;55.630;37.864;2022-12-10T19:21:24;3.30;;;2.70;;
53714;SDS011;39608;55.630;37.864;2022-12-10T19:26:46;3.35;;;2.60;;
53714;SDS011;39608;55.630;37.864;2022-12-10T19:32:07;2.88;;;2.58;;
53714;SDS011;39608;55.630;37.864;2022-12-10T19:37:28;3.55;;;2.72;;
53714;SDS011;39608;55.630;37.864;2022-12-10T19:42:50;3.58;;;3.10;;
53714;SDS011;39608;55.630;37.864;2022-12-10T19:48:11;3.47;;;2.53;;
53714;SDS011;39608;55.630;37.864;2022-12-10T19:53:32;5.55;;;3.10;;
53714;SDS011;39608;55.630;37.864;2022-12-10T19:58:54;3.60;;;2.78;;
53714;SDS011;39608;55.630;37.864;2022-12-10T20:04:16;5.32;;;2.85;;
53714;SDS011;39608;55.630;37.864;2022-12-10T20:09:37;3.72;;;2.95;;
53714;SDS011;39608;55.630;37.864;2022-12-10T20:14:59;3.08;;;2.75;;
53714;SDS011;39608;55.630;37.864;2022-12-10T20:20:20;3.72;;;3.03;;
53714;SDS011;39608;55.630;37.864;2022-12-10T20:25:44;3.05;;;2.72;;
53714;SDS011;39608;55.630;37.864;2022-12-10T20:31:07;4.18;;;3.08;;
53714;SDS011;39608;55.630;37.864;2022-12-10T20:36:29;4.18;;;3.00;;
53714;SDS011;39608;55.630;37.864;2022-12-10T20:41:50;2.55;;;2.35;;
53714;SDS011;39608;55.630;37.864;2022-12-10T20:47:13;3.03;;;2.63;;
53714;SDS011;39608;55.630;37.864;2022-12-10T20:52:33;2.65;;;2.45;;
53714;SDS011;39608;55.630;37.864;2022-12-10T20:57:55;2.63;;;2.42;;
53714;SDS011;39608;55.630;37.864;2022-12-10T21:03:17;2.72;;;2.50;;
53714;SDS011;39608;55.630;37.864;2022-12-10T21:08:19;3.85;;;2.92;;
53714;SDS011;39608;55.630;37.864;2022-12-10T21:13:22;3.72;;;3.38;;
53714;SDS011;39608;55.630;37.864;2022-12-10T21:18:27;3.42;;;3.13;;
53714;SDS011;39608;55.630;37.864;2022-12-10T21:23:29;3.30;;;2.90;;
53714;SDS011;39608;55.630;37.864;2022-12-10T21:28:31;4.20;;;3.25;;
53714;SDS011;39608;55.630;37.864;2022-12-10T21:33:34;4.35;;;3.80;;
53714;SDS011;39608;55.630;37.864;2022-12-10T21:38:36;4.95;;;3.85;;
53714;SDS011;39608;55.630;37.864;2022-12-10T21:43:38;4.50;;;3.83;;
53714;SDS011;39608;55.630;37.864;2022-12-10T21:48:44;5.63;;;4.18;;
53714;SDS011;39608;55.630;37.864;2022-12-10T21:53:46;4.18;;;3.63;;
53714;SDS011;39608;55.630;37.864;2022-12-10T21:58:48;5.57;;;4.28;;
53714;SDS011;39608;55.630;37.864;2022-12-10T22:03:51;7.18;;;4.55;;
53714;SDS011;39608;55.630;37.864;2022-12-10T22:08:53;4.78;;;4.13;;
53714;SDS011;39608;55.630;37.864;2022-12-10T22:13:55;5.72;;;4.70;;
53714;SDS011;39608;55.630;37.864;2022-12-10T22:18:58;6.38;;;4.65;;
53714;SDS011;39608;55.630;37.864;2022-12-10T22:24:00;6.15;;;4.72;;
53714;SDS011;39608;55.630;37.864;2022-12-10T22:29:02;6.18;;;4.95;;
53714;SDS011;39608;55.630;37.864;2022-12-10T22:34:08;6.15;;;5.18;;
53714;SDS011;39608;55.630;37.864;2022-12-10T22:39:10;7.13;;;5.55;;
53714;SDS011;39608;55.630;37.864;2022-12-10T22:44:13;6.28;;;5.47;;
53714;SDS011;39608;55.630;37.864;2022-12-10T22:49:16;6.38;;;5.30;;
53714;SDS011;39608;55.630;37.864;2022-12-10T22:54:18;7.55;;;5.95;;
53714;SDS011;39608;55.630;37.864;2022-12-10T22:59:20;6.38;;;5.32;;
53714;SDS011;39608;55.630;37.864;2022-12-10T23:04:23;6.82;;;5.50;;
53714;SDS011;39608;55.630;37.864;2022-12-10T23:09:25;6.90;;;5.13;;
53714;SDS011;39608;55.630;37.864;2022-12-10T23:14:28;6.07;;;5.47;;
53714;SDS011;39608;55.630;37.864;2022-12-10T23:19:33;6.65;;;5.25;;
53714;SDS011;39608;55.630;37.864;2022-12-10T23:24:37;7.32;;;5.90;;
53714;SDS011;39608;55.630;37.864;2022-12-10T23:29:47;7.80;;;5.97;;
53714;SDS011;39608;55.630;37.864;2022-12-10T23:34:50;5.93;;;5.38;;
53714;SDS011;39608;55.630;37.864;2022-12-10T23:39:52;6.78;;;5.57;;
53714;SDS011;39608;55.630;37.864;2022-12-10T23:44:54;7.93;;;6.22;;
53714;SDS011;39608;55.630;37.864;2022-12-10T23:49:58;7.78;;;6.45;;
53714;SDS011;39608;55.630;37.864;2022-12-10T23:55:00;8.25;;;6.28;;
